Time;durP1;ratioP1;P1;durP2;ratioP2;P2;SDS_P1;SDS_P2;PMS_P1;PMS_P2;Temp;Humidity;BMP_temperature;BMP_pressure;BME280_temperature;BME280_humidity;BME280_pressure;Samples;Min_cycle;Max_cycle;Signal;HPM_P1;HPM_P2
2024/01/13 00:01:07;;;;;;;22.48;9.90;;;;;;;-3.05;52.63;95389.53;5045018;28;20033;-86
2024/01/13 00:03:32;;;;;;;18.75;9.40;;;;;;;-3.09;52.70;95382.50;5042927;28;20021;-87
2024/01/13 00:05:59;;;;;;;16.55;8.95;;;;;;;-3.06;52.54;95387.97;5043702;28;20053;-87
2024/01/13 00:08:24;;;;;;;20.35;9.88;;;;;;;-3.08;52.41;95381.38;5038947;28;20029;-86
2024/01/13 00:10:50;;;;;;;22.40;9.50;;;;;;;-3.05;52.57;95372.63;5035343;28;20032;-86
2024/01/13 00:13:15;;;;;;;17.90;9.02;;;;;;;-3.05;52.26;95367.25;5034025;28;20363;-86
2024/01/13 00:15:40;;;;;;;19.35;9.93;;;;;;;-2.98;52.06;95378.22;5035970;28;20069;-89
2024/01/13 00:18:07;;;;;;;16.65;9.02;;;;;;;-3.01;52.08;95379.69;5035667;28;20108;-87
2024/01/13 00:20:32;;;;;;;19.40;8.80;;;;;;;-3.09;52.18;95371.75;5039786;28;20492;-88
2024/01/13 00:22:58;;;;;;;18.02;10.32;;;;;;;-3.05;52.11;95373.41;5035848;28;20052;-87
2024/01/13 00:25:23;;;;;;;19.20;9.02;;;;;;;-3.04;52.17;95372.28;5030312;28;20460;-85
2024/01/13 00:27:48;;;;;;;18.10;9.15;;;;;;;-3.15;52.05;95375.75;5029138;28;20074;-86
2024/01/13 00:30:15;;;;;;;22.80;8.57;;;;;;;-3.21;52.34;95383.31;5028016;28;20064;-87
2024/01/13 00:32:40;;;;;;;15.63;8.43;;;;;;;-3.11;52.43;95377.44;5028801;28;20048;-87
2024/01/13 00:35:06;;;;;;;20.30;9.13;;;;;;;-3.19;51.88;95381.06;5029834;28;20033;-86
2024/01/13 00:37:31;;;;;;;20.67;9.63;;;;;;;-3.35;52.28;95382.84;5029940;28;20025;-85
2024/01/13 00:39:56;;;;;;;18.48;8.82;;;;;;;-3.30;52.54;95369.97;5032448;28;20041;-87
2024/01/13 00:42:22;;;;;;;16.42;9.00;;;;;;;-3.13;52.42;95368.94;5032967;28;20038;-87
2024/01/13 00:44:47;;;;;;;20.30;9.27;;;;;;;-3.16;52.44;95369.59;5034103;28;20060;-86
2024/01/13 00:47:13;;;;;;;20.02;9.52;;;;;;;-3.11;52.22;95376.66;5028854;28;20120;-86
2024/01/13 00:49:38;;;;;;;18.45;9.45;;;;;;;-3.10;52.18;95373.63;5028327;28;20094;-89
2024/01/13 00:52:04;;;;;;;16.42;8.30;;;;;;;-3.04;52.27;95375.00;5028360;28;20060;-88
2024/01/13 00:54:29;;;;;;;20.35;10.60;;;;;;;-3.13;52.31;95363.56;5028347;28;20037;-87
2024/01/13 00:56:55;;;;;;;19.15;9.57;;;;;;;-3.10;52.56;95354.78;5035178;28;20033;-87
2024/01/13 00:59:20;;;;;;;19.88;9.55;;;;;;;-3.04;52.52;95375.00;5028574;28;20029;-89
2024/01/13 01:01:45;;;;;;;16.48;9.68;;;;;;;-3.16;52.77;95366.91;5029374;28;20032;-88
2024/01/13 01:04:11;;;;;;;15.02;9.95;;;;;;;-3.09;53.15;95364.47;5027522;28;20036;-88
2024/01/13 01:06:36;;;;;;;17.73;9.13;;;;;;;-3.03;52.98;95367.69;5028685;28;20040;-87
2024/01/13 01:09:02;;;;;;;20.63;9.85;;;;;;;-3.08;53.12;95370.63;5027354;28;20039;-88
2024/01/13 01:11:27;;;;;;;18.27;9.85;;;;;;;-3.04;53.22;95369.59;5028558;28;20117;-88
2024/01/13 01:13:53;;;;;;;21.67;10.18;;;;;;;-2.98;53.12;95356.72;5032756;28;20036;-89
2024/01/13 01:16:18;;;;;;;16.50;8.23;;;;;;;-3.06;52.92;95347.63;5040881;28;20044;-87
2024/01/13 01:18:43;;;;;;;20.88;10.90;;;;;;;-3.06;52.86;95353.00;5042121;28;20033;-86
2024/01/13 01:21:09;;;;;;;21.40;10.32;;;;;;;-3.05;52.95;95349.19;5038449;28;20021;-90
2024/01/13 01:23:35;;;;;;;19.05;9.75;;;;;;;-3.03;53.46;95346.19;5042902;28;20108;-89
2024/01/13 01:26:00;;;;;;;19.85;9.38;;;;;;;-2.90;52.77;95346.94;5044286;28;20021;-89
2024/01/13 01:28:25;;;;;;;21.95;10.32;;;;;;;-2.94;53.20;95350.28;5028469;28;20033;-88
2024/01/13 01:30:51;;;;;;;21.05;9.80;;;;;;;-2.89;52.96;95337.72;5028392;28;20030;-86
2024/01/13 01:33:16;;;;;;;22.90;10.45;;;;;;;-2.80;52.70;95344.53;5027241;28;20017;-86
2024/01/13 01:35:41;;;;;;;21.65;9.95;;;;;;;-2.74;52.70;95334.31;5027505;28;20056;-87
2024/01/13 01:38:07;;;;;;;17.58;8.68;;;;;;;-2.73;52.89;95335.88;5026181;28;20060;-86
2024/01/13 01:40:33;;;;;;;20.40;10.45;;;;;;;-2.72;52.66;95332.06;5027764;28;20068;-87
2024/01/13 01:42:58;;;;;;;20.65;10.25;;;;;;;-2.75;53.21;95332.75;5024511;28;20025;-87
2024/01/13 01:45:24;;;;;;;19.17;9.73;;;;;;;-2.70;52.82;95335.19;5027395;28;20092;-86
2024/01/13 01:47:51;;;;;;;19.67;10.50;;;;;;;-2.68;52.72;95335.66;5026583;28;20040;-86
2024/01/13 01:50:16;;;;;;;19.00;10.50;;;;;;;-2.61;53.02;95340.44;5024937;28;20041;-86
2024/01/13 01:52:42;;;;;;;17.48;9.93;;;;;;;-2.57;52.87;95350.19;5027054;28;20029;-86
2024/01/13 01:55:08;;;;;;;22.30;11.50;;;;;;;-2.56;52.81;95350.97;5026169;28;20584;-87
2024/01/13 01:57:38;;;;;;;20.40;10.45;;;;;;;-2.54;53.08;95351.41;5009954;28;20041;-89
2024/01/13 02:00:05;;;;;;;20.98;10.55;;;;;;;-2.54;53.25;95354.09;5025537;28;20026;-87
2024/01/13 02:02:31;;;;;;;22.45;11.43;;;;;;;-2.46;52.68;95347.78;5027478;28;20029;-87
2024/01/13 02:04:58;;;;;;;21.63;10.20;;;;;;;-2.49;52.67;95345.78;5031406;28;20033;-89
2024/01/13 02:07:24;;;;;;;25.00;11.95;;;;;;;-2.61;52.79;95345.81;5033619;28;20041;-87
2024/01/13 02:09:50;;;;;;;24.63;11.45;;;;;;;-2.57;53.27;95344.81;5027792;28;20037;-88
2024/01/13 02:12:16;;;;;;;23.08;10.98;;;;;;;-2.50;52.95;95349.59;5024960;28;20151;-87
2024/01/13 02:14:41;;;;;;;18.23;10.40;;;;;;;-2.55;53.34;95341.75;5025720;28;20113;-86
2024/01/13 02:17:07;;;;;;;23.95;11.15;;;;;;;-2.53;53.39;95342.97;5026335;28;20049;-86
2024/01/13 02:19:32;;;;;;;23.60;10.00;;;;;;;-2.45;53.17;95335.88;5031853;28;20040;-87
2024/01/13 02:21:59;;;;;;;21.60;11.18;;;;;;;-2.52;52.87;95330.31;5027197;28;20025;-87
2024/01/13 02:24:24;;;;;;;23.48;11.32;;;;;;;-2.53;53.03;95318.75;5027236;28;20052;-88
2024/01/13 02:26:49;;;;;;;30.02;11.82;;;;;;;-2.55;52.99;95331.78;5027057;28;20426;-88
2024/01/13 02:29:15;;;;;;;22.38;12.38;;;;;;;-2.62;53.20;95322.72;5026439;28;20033;-88
2024/01/13 02:31:40;;;;;;;22.05;11.23;;;;;;;-2.49;53.03;95322.31;5027185;28;20116;-87
2024/01/13 02:34:05;;;;;;;20.55;11.48;;;;;;;-2.49;53.14;95321.53;5025568;28;20112;-88
2024/01/13 02:36:31;;;;;;;22.73;10.85;;;;;;;-2.46;53.06;95326.25;5026928;28;20029;-87
2024/01/13 02:38:56;;;;;;;21.75;11.32;;;;;;;-2.45;53.24;95317.03;5025628;28;20104;-87
2024/01/13 02:41:22;;;;;;;23.27;12.13;;;;;;;-2.47;53.17;95309.28;5028859;28;20020;-87
2024/01/13 02:43:47;;;;;;;23.58;10.85;;;;;;;-2.39;53.00;95310.28;5032378;28;20586;-87
2024/01/13 02:46:12;;;;;;;23.77;11.32;;;;;;;-2.47;53.09;95309.28;5027431;28;20498;-86
2024/01/13 02:48:40;;;;;;;23.92;11.43;;;;;;;-2.35;53.01;95319.25;5029856;28;20036;-87
2024/01/13 02:51:10;;;;;;;22.20;11.93;;;;;;;-2.35;53.04;95313.03;5025086;28;20025;-86
2024/01/13 02:53:36;;;;;;;23.55;11.98;;;;;;;-2.43;53.13;95314.78;5027205;28;20034;-87
2024/01/13 02:56:01;;;;;;;25.27;11.77;;;;;;;-2.42;52.93;95314.44;5025039;28;20037;-86
2024/01/13 02:58:27;;;;;;;21.10;10.02;;;;;;;-2.45;52.98;95315.13;5026600;28;20030;-87
2024/01/13 03:00:52;;;;;;;21.05;11.25;;;;;;;-2.45;52.54;95322.44;5026002;28;20037;-86
2024/01/13 03:03:17;;;;;;;21.25;11.65;;;;;;;-2.38;52.31;95324.53;5036088;28;20407;-87
2024/01/13 03:05:43;;;;;;;23.88;10.93;;;;;;;-2.40;52.63;95324.88;5032555;28;20101;-87
2024/01/13 03:08:08;;;;;;;19.65;10.95;;;;;;;-2.36;52.34;95333.81;5029899;28;20496;-87
2024/01/13 03:10:33;;;;;;;20.23;10.60;;;;;;;-2.33;52.05;95343.13;5029977;28;20033;-87
2024/01/13 03:12:59;;;;;;;23.08;10.15;;;;;;;-2.37;52.02;95345.72;5029686;28;20034;-87
2024/01/13 03:15:24;;;;;;;19.85;10.35;;;;;;;-2.38;52.14;95346.06;5031863;28;20034;-86
2024/01/13 03:17:50;;;;;;;20.60;9.75;;;;;;;-2.43;52.21;95342.47;5031643;28;20025;-87
2024/01/13 03:20:15;;;;;;;22.00;10.77;;;;;;;-2.49;52.00;95335.00;5032762;28;20388;-85
2024/01/13 03:22:40;;;;;;;18.77;10.10;;;;;;;-2.46;51.94;95347.78;5030925;28;20026;-87
2024/01/13 03:25:06;;;;;;;20.52;10.95;;;;;;;-2.49;51.73;95343.84;5031750;28;20033;-87
2024/01/13 03:27:32;;;;;;;22.13;10.52;;;;;;;-2.49;51.40;95357.31;5038037;28;20025;-89
2024/01/13 03:29:57;;;;;;;20.13;10.23;;;;;;;-2.44;51.25;95345.53;5035608;28;20026;-87
2024/01/13 03:32:22;;;;;;;18.27;9.98;;;;;;;-2.50;51.60;95357.66;5031046;28;20506;-87
2024/01/13 03:34:48;;;;;;;19.10;9.85;;;;;;;-2.44;51.55;95357.09;5029711;28;20025;-87
2024/01/13 03:37:13;;;;;;;19.33;9.80;;;;;;;-2.48;51.01;95350.81;5031057;28;20059;-88
2024/01/13 03:39:38;;;;;;;19.80;10.90;;;;;;;-2.52;51.22;95349.16;5034896;28;20021;-88
2024/01/13 03:42:04;;;;;;;22.13;9.93;;;;;;;-2.56;51.18;95338.28;5036963;28;20376;-86
2024/01/13 03:44:29;;;;;;;21.17;10.68;;;;;;;-2.63;51.52;95340.78;5031062;28;20029;-87
2024/01/13 03:46:56;;;;;;;20.52;10.75;;;;;;;-2.68;51.66;95339.13;5030233;28;20029;-87
2024/01/13 03:49:21;;;;;;;19.63;9.85;;;;;;;-2.70;51.76;95332.50;5030476;28;20116;-88
2024/01/13 03:51:47;;;;;;;21.48;11.35;;;;;;;-2.71;52.05;95326.34;5030286;28;20104;-88
2024/01/13 03:54:12;;;;;;;22.00;10.80;;;;;;;-2.70;51.87;95332.50;5032336;28;20127;-88
2024/01/13 03:56:37;;;;;;;21.77;10.82;;;;;;;-2.72;52.08;95330.16;5043119;28;20132;-88
2024/01/13 03:59:04;;;;;;;24.67;13.38;;;;;;;-2.73;52.07;95331.28;5041320;28;20083;-88
2024/01/13 04:01:29;;;;;;;24.80;11.27;;;;;;;-2.64;51.93;95330.34;5034725;28;20056;-88
2024/01/13 04:03:55;;;;;;;21.40;11.30;;;;;;;-2.63;51.65;95331.94;5034547;28;20451;-89
2024/01/13 04:06:20;;;;;;;20.58;10.45;;;;;;;-2.70;51.92;95322.50;5035350;28;20144;-88
2024/01/13 04:08:46;;;;;;;23.58;11.02;;;;;;;-2.69;51.81;95326.00;5031554;28;20025;-87
2024/01/13 04:11:12;;;;;;;20.88;11.48;;;;;;;-2.72;51.88;95330.16;5035089;28;20032;-88
2024/01/13 04:13:37;;;;;;;22.42;10.85;;;;;;;-2.69;51.39;95331.41;5041750;28;20022;-88
2024/01/13 04:16:03;;;;;;;16.95;10.35;;;;;;;-2.77;51.78;95329.63;5041822;28;20049;-88
2024/01/13 04:18:28;;;;;;;19.13;10.43;;;;;;;-2.82;51.76;95327.16;5038128;28;20051;-88
2024/01/13 04:20:54;;;;;;;20.33;11.05;;;;;;;-2.89;52.04;95335.03;5037198;28;20021;-88
2024/01/13 04:23:19;;;;;;;24.60;12.25;;;;;;;-2.95;52.27;95335.28;5031686;28;20084;-88
2024/01/13 04:25:45;;;;;;;24.90;11.32;;;;;;;-2.93;52.29;95343.00;5031046;28;20033;-87
2024/01/13 04:28:10;;;;;;;23.65;11.88;;;;;;;-2.87;51.89;95348.91;5027673;28;20033;-87
2024/01/13 04:30:35;;;;;;;22.67;11.20;;;;;;;-2.91;51.79;95354.22;5028134;28;20025;-87
2024/01/13 04:33:01;;;;;;;27.55;12.23;;;;;;;-2.95;51.68;95353.31;5029838;28;20017;-87
2024/01/13 04:35:27;;;;;;;22.27;11.70;;;;;;;-2.97;51.90;95361.75;5028293;28;20116;-88
2024/01/13 04:37:56;;;;;;;20.80;11.15;;;;;;;-2.98;51.52;95356.72;5029527;28;20094;-88
2024/01/13 04:40:21;;;;;;;23.27;11.30;;;;;;;-3.06;51.75;95355.69;5028325;28;20109;-87
2024/01/13 04:42:47;;;;;;;18.35;9.55;;;;;;;-3.01;51.56;95362.75;5029117;28;20109;-88
2024/01/13 04:45:12;;;;;;;20.50;11.10;;;;;;;-3.08;51.54;95371.41;5031197;28;20029;-87
2024/01/13 04:47:39;;;;;;;22.60;11.02;;;;;;;-3.11;51.87;95380.13;5038849;28;20048;-87
2024/01/13 04:50:04;;;;;;;21.83;10.27;;;;;;;-3.18;51.70;95369.16;5036248;28;20033;-88
2024/01/13 04:52:30;;;;;;;20.02;10.73;;;;;;;-3.14;51.74;95375.44;5029979;28;20033;-89
2024/01/13 04:54:55;;;;;;;24.55;11.45;;;;;;;-3.11;51.46;95369.38;5028500;28;20487;-87
2024/01/13 04:57:21;;;;;;;22.98;10.63;;;;;;;-3.10;51.82;95368.25;5028088;28;20053;-88
2024/01/13 04:59:46;;;;;;;20.27;10.55;;;;;;;-3.22;51.85;95371.72;5030199;28;20026;-87
2024/01/13 05:02:12;;;;;;;25.25;11.98;;;;;;;-3.19;52.28;95381.06;5037476;28;20029;-89
2024/01/13 05:04:39;;;;;;;17.25;10.35;;;;;;;-3.11;51.56;95376.66;5030378;28;20075;-88
2024/01/13 05:07:04;;;;;;;17.17;10.25;;;;;;;-3.16;51.83;95374.97;5035970;28;20033;-87
2024/01/13 05:09:30;;;;;;;22.50;10.70;;;;;;;-3.07;51.87;95364.88;5031126;28;20448;-89
2024/01/13 05:11:55;;;;;;;21.52;10.45;;;;;;;-3.12;51.93;95362.44;5028588;28;20361;-85
2024/01/13 05:14:20;;;;;;;22.88;11.00;;;;;;;-3.09;52.03;95355.59;5026239;28;20025;-85
2024/01/13 05:16:46;;;;;;;21.65;10.70;;;;;;;-3.10;51.99;95346.72;5027350;28;20454;-85
2024/01/13 05:19:11;;;;;;;23.92;11.43;;;;;;;-3.24;52.25;95344.41;5026721;28;20018;-86
2024/01/13 05:21:37;;;;;;;28.77;11.32;;;;;;;-3.10;52.04;95337.88;5027973;28;20396;-84
2024/01/13 05:24:02;;;;;;;18.73;9.85;;;;;;;-3.16;52.12;95331.16;5026498;28;20105;-85
2024/01/13 05:26:27;;;;;;;22.60;11.32;;;;;;;-3.17;51.53;95333.06;5026187;28;20029;-84
2024/01/13 05:28:53;;;;;;;22.17;10.88;;;;;;;-3.14;51.54;95326.25;5027866;28;20029;-85
2024/01/13 05:31:18;;;;;;;21.85;11.07;;;;;;;-3.21;51.60;95321.44;5026749;28;20025;-85
2024/01/13 05:33:43;;;;;;;19.13;10.98;;;;;;;-3.27;51.73;95317.41;5027350;28;20034;-84
2024/01/13 05:36:09;;;;;;;21.08;10.77;;;;;;;-3.33;51.78;95316.06;5025552;28;20040;-85
2024/01/13 05:38:34;;;;;;;20.23;10.10;;;;;;;-3.38;51.81;95325.19;5027138;28;20025;-85
2024/01/13 05:41:00;;;;;;;22.20;12.20;;;;;;;-3.34;51.45;95327.94;5026431;28;20517;-85
2024/01/13 05:43:26;;;;;;;22.02;10.50;;;;;;;-3.37;51.64;95345.56;5026012;28;20033;-84
2024/01/13 05:45:52;;;;;;;20.85;10.65;;;;;;;-3.35;51.80;95343.31;5026632;28;20026;-85
2024/01/13 05:48:17;;;;;;;24.20;10.18;;;;;;;-3.46;51.83;95342.19;5025769;28;20124;-88
2024/01/13 05:50:43;;;;;;;21.30;10.15;;;;;;;-3.35;51.85;95346.00;5026905;28;20056;-86
2024/01/13 05:53:08;;;;;;;18.10;9.48;;;;;;;-3.32;51.77;95341.84;5025508;28;20029;-84
2024/01/13 05:55:34;;;;;;;16.73;9.10;;;;;;;-3.38;51.89;95359.31;5027040;28;20112;-87
2024/01/13 05:57:59;;;;;;;14.52;9.30;;;;;;;-3.38;52.14;95354.75;5026055;28;20407;-88
2024/01/13 06:00:24;;;;;;;17.80;9.88;;;;;;;-3.35;51.74;95348.69;5025085;28;20785;-85
2024/01/13 06:02:50;;;;;;;20.27;9.90;;;;;;;-3.40;51.99;95348.13;5026303;28;20041;-85
2024/01/13 06:05:15;;;;;;;21.13;10.27;;;;;;;-3.36;52.07;95359.78;5025631;28;20017;-85
2024/01/13 06:07:42;;;;;;;20.63;9.95;;;;;;;-3.41;52.30;95347.34;5025036;28;20029;-86
2024/01/13 06:10:08;;;;;;;21.85;10.23;;;;;;;-3.36;52.19;95349.03;5026235;28;20555;-85
2024/01/13 06:12:33;;;;;;;24.02;10.48;;;;;;;-3.36;51.98;95354.41;5027455;28;20196;-85
2024/01/13 06:14:59;;;;;;;20.38;9.48;;;;;;;-3.30;52.38;95348.44;5025761;28;21125;-85
2024/01/13 06:17:24;;;;;;;20.95;9.68;;;;;;;-3.30;52.34;95348.44;5025946;28;20056;-84
2024/01/13 06:19:49;;;;;;;17.40;9.63;;;;;;;-3.21;52.08;95359.88;5025993;28;20108;-86
2024/01/13 06:22:15;;;;;;;21.77;9.88;;;;;;;-3.23;51.86;95356.72;5026089;28;20036;-85
2024/01/13 06:24:40;;;;;;;18.65;9.75;;;;;;;-3.28;52.14;95348.88;5027596;28;20029;-87
2024/01/13 06:27:05;;;;;;;16.15;8.95;;;;;;;-3.25;52.21;95339.38;5026027;28;20435;-87
2024/01/13 06:29:31;;;;;;;21.08;10.88;;;;;;;-3.14;51.85;95342.38;5026658;28;20029;-88
2024/01/13 06:31:57;;;;;;;18.27;9.25;;;;;;;-3.08;51.52;95335.66;5025644;28;20025;-89
2024/01/13 06:34:22;;;;;;;20.65;10.63;;;;;;;-3.10;51.70;95338.66;5026332;28;20051;-87
2024/01/13 06:36:47;;;;;;;16.92;9.30;;;;;;;-3.11;51.38;95345.16;5028929;28;20036;-87
2024/01/13 06:39:13;;;;;;;16.20;9.48;;;;;;;-3.21;51.83;95337.59;5029943;28;20040;-86
2024/01/13 06:41:38;;;;;;;20.15;10.40;;;;;;;-3.13;51.58;95325.13;5030062;28;20060;-86
2024/01/13 06:44:04;;;;;;;24.88;9.05;;;;;;;-3.11;51.43;95329.03;5029373;28;20035;-86
2024/01/13 06:46:29;;;;;;;18.00;9.48;;;;;;;-3.12;51.68;95340.13;5029767;28;20022;-86
2024/01/13 06:48:54;;;;;;;18.05;9.65;;;;;;;-3.12;51.85;95345.50;5028978;28;20033;-86
2024/01/13 06:51:20;;;;;;;18.02;8.82;;;;;;;-3.14;51.50;95353.16;5030267;28;20025;-86
2024/01/13 06:53:45;;;;;;;17.58;9.63;;;;;;;-3.09;51.38;95351.00;5029856;28;20407;-85
2024/01/13 06:56:11;;;;;;;18.50;10.00;;;;;;;-3.04;51.45;95363.41;5036018;28;20025;-86
2024/01/13 06:58:36;;;;;;;19.73;10.10;;;;;;;-2.99;51.22;95366.66;5036747;28;20491;-85
2024/01/13 07:01:02;;;;;;;20.50;9.85;;;;;;;-3.06;51.14;95355.69;5035275;28;20052;-86
2024/01/13 07:03:27;;;;;;;18.50;8.90;;;;;;;-3.02;51.27;95366.56;5036151;28;20029;-87
2024/01/13 07:05:52;;;;;;;18.20;10.75;;;;;;;-2.90;50.73;95373.84;5033669;28;20056;-86
2024/01/13 07:08:18;;;;;;;18.98;9.23;;;;;;;-2.77;50.47;95383.44;5031293;28;20088;-85
2024/01/13 07:10:43;;;;;;;19.95;10.90;;;;;;;-2.72;50.75;95375.13;5031251;28;20057;-85
2024/01/13 07:13:09;;;;;;;25.58;13.15;;;;;;;-2.68;50.58;95378.72;5033208;28;20116;-86
2024/01/13 07:15:34;;;;;;;20.90;10.15;;;;;;;-2.67;50.71;95382.97;5031105;28;20103;-85
2024/01/13 07:18:00;;;;;;;16.58;10.07;;;;;;;-2.64;50.83;95374.19;5031811;28;20085;-86
2024/01/13 07:20:26;;;;;;;24.65;11.80;;;;;;;-2.63;50.80;95381.16;5030680;28;20500;-84
2024/01/13 07:22:52;;;;;;;21.67;12.05;;;;;;;-2.60;50.84;95385.06;5030935;28;20033;-86
2024/01/13 07:25:17;;;;;;;24.63;10.93;;;;;;;-2.56;50.77;95384.06;5029652;28;20025;-85
2024/01/13 07:27:43;;;;;;;24.73;12.80;;;;;;;-2.53;50.85;95391.44;5029117;28;20041;-85
2024/01/13 07:30:08;;;;;;;23.05;11.70;;;;;;;-2.53;51.07;95394.13;5030496;28;20029;-85
2024/01/13 07:32:34;;;;;;;20.48;10.82;;;;;;;-2.49;51.04;95395.00;5029556;28;20095;-86
2024/01/13 07:34:59;;;;;;;22.88;11.18;;;;;;;-2.42;51.01;95389.03;5030034;28;20029;-86
2024/01/13 07:37:24;;;;;;;29.70;14.10;;;;;;;-2.37;50.68;95386.09;5028975;28;20021;-86
2024/01/13 07:39:50;;;;;;;23.85;12.68;;;;;;;-2.38;50.98;95386.47;5028546;28;20215;-86
2024/01/13 07:42:15;;;;;;;25.23;11.88;;;;;;;-2.39;51.17;95404.53;5031193;28;20029;-86
2024/01/13 07:44:42;;;;;;;24.55;12.38;;;;;;;-2.37;51.29;95396.09;5029509;28;20381;-85
2024/01/13 07:47:07;;;;;;;23.30;11.75;;;;;;;-2.34;51.33;95387.34;5028872;28;20081;-84
2024/01/13 07:49:32;;;;;;;24.42;12.07;;;;;;;-2.29;51.36;95390.59;5028002;28;20061;-85
2024/01/13 07:51:58;;;;;;;23.85;12.85;;;;;;;-2.29;51.30;95392.50;5030012;28;20029;-85
2024/01/13 07:54:23;;;;;;;20.95;11.77;;;;;;;-2.31;51.35;95392.03;5028221;28;20378;-86
2024/01/13 07:56:49;;;;;;;29.75;13.55;;;;;;;-2.26;51.70;95384.50;5028680;28;20026;-86
2024/01/13 07:59:19;;;;;;;23.58;12.18;;;;;;;-2.22;51.79;95385.38;5027251;28;20108;-85
2024/01/13 08:01:45;;;;;;;20.85;12.15;;;;;;;-2.14;51.26;95386.34;5028240;28;20454;-85
2024/01/13 08:04:11;;;;;;;24.90;12.07;;;;;;;-2.01;50.98;95390.53;5027675;28;20052;-85
2024/01/13 08:06:36;;;;;;;22.48;12.30;;;;;;;-1.63;50.33;95386.50;5029844;28;20109;-85
2024/01/13 08:09:03;;;;;;;20.45;12.10;;;;;;;-1.35;49.15;95383.72;5031742;28;20053;-85
2024/01/13 08:11:29;;;;;;;21.67;11.35;;;;;;;-1.40;49.38;95387.44;5028375;28;20041;-86
2024/01/13 08:13:54;;;;;;;25.63;11.23;;;;;;;-1.39;49.25;95380.91;5029154;28;20037;-85
2024/01/13 08:16:20;;;;;;;24.25;12.25;;;;;;;-1.35;49.56;95387.19;5027980;28;20041;-84
2024/01/13 08:18:45;;;;;;;21.63;11.25;;;;;;;-1.31;49.46;95391.91;5028051;28;20512;-83
2024/01/13 08:21:10;;;;;;;19.75;10.52;;;;;;;-1.39;49.07;95375.53;5030458;28;20029;-85
2024/01/13 08:23:36;;;;;;;18.65;10.30;;;;;;;-1.32;49.36;95391.09;5031368;28;20068;-84
2024/01/13 08:26:02;;;;;;;19.98;9.77;;;;;;;-1.29;49.25;95395.03;5028973;28;20033;-84
2024/01/13 08:28:28;;;;;;;19.40;10.98;;;;;;;-1.30;49.27;95390.75;5027581;28;20100;-85
2024/01/13 08:30:53;;;;;;;21.27;10.73;;;;;;;-1.26;49.67;95388.91;5028740;28;20319;-85
2024/01/13 08:33:19;;;;;;;24.75;12.57;;;;;;;-1.22;49.74;95390.56;5027419;28;20543;-84
2024/01/13 08:35:45;;;;;;;27.65;12.73;;;;;;;-1.11;49.14;95380.03;5027713;28;20021;-84
2024/01/13 08:38:11;;;;;;;19.70;10.93;;;;;;;-0.99;48.91;95385.31;5028233;28;20054;-84
2024/01/13 08:40:36;;;;;;;16.42;8.95;;;;;;;-0.96;48.94;95383.84;5027188;28;20036;-84
2024/01/13 08:43:03;;;;;;;20.95;9.65;;;;;;;-0.89;48.92;95384.00;5028405;28;20013;-86
2024/01/13 08:45:29;;;;;;;19.23;10.30;;;;;;;-0.73;48.80;95389.34;5027686;28;20018;-85
2024/01/13 08:47:58;;;;;;;18.52;9.73;;;;;;;-0.56;48.12;95375.44;5028507;28;20474;-83
2024/01/13 08:50:23;;;;;;;15.00;8.35;;;;;;;-0.48;47.67;95358.22;5025333;28;20022;-80
2024/01/13 08:52:51;;;;;;;15.13;8.05;;;;;;;-0.29;47.67;95350.13;5028083;28;20455;-85
2024/01/13 08:55:18;;;;;;;21.25;10.07;;;;;;;-0.05;46.80;95343.63;5027351;28;20025;-83
2024/01/13 08:57:44;;;;;;;17.65;9.25;;;;;;;0.26;45.92;95342.63;5027111;28;20112;-83
2024/01/13 09:00:09;;;;;;;18.00;8.82;;;;;;;0.42;45.23;95350.63;5026729;28;20429;-81
2024/01/13 09:02:35;;;;;;;14.18;7.82;;;;;;;0.47;44.76;95347.63;5026773;28;20029;-81
2024/01/13 09:05:00;;;;;;;15.82;8.45;;;;;;;0.70;44.60;95336.75;5027776;28;20445;-81
2024/01/13 09:07:26;;;;;;;15.32;8.60;;;;;;;2.24;41.26;95346.81;5026293;28;20025;-83
2024/01/13 09:09:51;;;;;;;15.80;8.73;;;;;;;3.82;39.33;95330.38;5027859;28;20420;-82
2024/01/13 09:12:17;;;;;;;13.48;8.15;;;;;;;5.21;36.00;95325.00;5026664;28;20499;-82
2024/01/13 09:14:44;;;;;;;15.23;8.77;;;;;;;6.15;34.11;95323.53;5027084;28;20028;-81
2024/01/13 09:17:10;;;;;;;16.75;9.30;;;;;;;6.83;32.37;95324.63;5027321;28;20496;-82
2024/01/13 09:19:35;;;;;;;15.23;8.73;;;;;;;6.42;32.94;95327.25;5026773;28;20049;-82
2024/01/13 09:22:00;;;;;;;16.30;9.52;;;;;;;5.96;33.21;95314.66;5027715;28;20514;-81
2024/01/13 09:24:26;;;;;;;14.77;8.45;;;;;;;5.52;33.75;95309.75;5026121;28;20022;-82
2024/01/13 09:26:51;;;;;;;14.88;9.60;;;;;;;5.44;34.17;95305.47;5028003;28;20018;-84
2024/01/13 09:29:17;;;;;;;15.15;9.20;;;;;;;5.23;34.37;95298.94;5026793;28;20033;-89
2024/01/13 09:31:42;;;;;;;13.45;8.07;;;;;;;5.22;33.68;95294.66;5026314;28;20022;-89
2024/01/13 09:34:08;;;;;;;14.38;9.15;;;;;;;5.51;33.81;95298.06;5027037;28;20112;-88
2024/01/13 09:36:33;;;;;;;12.55;7.03;;;;;;;5.58;33.01;95289.09;5027309;28;20021;-88
2024/01/13 09:38:59;;;;;;;10.48;7.32;;;;;;;7.65;30.10;95285.50;5035701;28;20056;-84
2024/01/13 09:41:24;;;;;;;11.75;7.35;;;;;;;8.02;29.64;95280.34;5029351;28;20037;-91
2024/01/13 09:43:56;;;;;;;12.80;8.13;;;;;;;6.69;31.00;95293.91;5027948;28;20033;-80
2024/01/13 09:46:22;;;;;;;16.70;9.55;;;;;;;5.83;31.88;95278.06;5025186;28;20038;-93
2024/01/13 09:48:48;;;;;;;13.10;8.52;;;;;;;4.97;33.15;95275.63;5026739;28;20511;-87
2024/01/13 09:51:14;;;;;;;12.13;7.50;;;;;;;4.29;34.62;95274.88;5025304;28;20029;-81
2024/01/13 09:53:47;;;;;;;12.43;7.68;;;;;;;3.63;36.14;95277.09;5025622;28;20108;-81
2024/01/13 09:56:18;;;;;;;11.77;8.43;;;;;;;3.17;39.10;95278.44;5025626;28;20033;-82
2024/01/13 09:58:43;;;;;;;16.55;8.07;;;;;;;2.58;38.27;95266.06;5025969;28;20472;-84
2024/01/13 10:01:09;;;;;;;15.90;8.35;;;;;;;2.36;40.15;95265.91;5025610;28;20097;-81
2024/01/13 10:03:34;;;;;;;15.65;8.40;;;;;;;2.22;40.03;95267.72;5025635;28;20041;-82
2024/01/13 10:05:59;;;;;;;14.23;7.90;;;;;;;2.10;39.94;95266.84;5027212;28;20336;-86
2024/01/13 10:08:30;;;;;;;11.13;7.05;;;;;;;2.38;38.62;95255.44;5025613;28;20091;-80
2024/01/13 10:10:55;;;;;;;12.55;7.22;;;;;;;2.29;38.80;95254.19;5024073;28;20034;-83
2024/01/13 10:13:20;;;;;;;12.10;7.18;;;;;;;2.37;39.42;95248.47;5023946;28;20056;-81
2024/01/13 10:15:46;;;;;;;14.15;8.20;;;;;;;2.36;39.31;95246.91;5023904;28;20073;-82
2024/01/13 10:18:11;;;;;;;14.13;6.40;;;;;;;2.80;39.24;95246.03;5023731;28;20368;-81
2024/01/13 10:20:37;;;;;;;13.73;7.45;;;;;;;4.34;36.54;95239.09;5023754;28;20079;-86
2024/01/13 10:23:03;;;;;;;11.40;6.63;;;;;;;5.76;33.33;95232.50;5007263;28;20056;-81
2024/01/13 10:25:29;;;;;;;9.13;5.97;;;;;;;7.29;30.42;95230.44;5024087;28;20029;-82
2024/01/13 10:27:55;;;;;;;12.00;6.75;;;;;;;7.83;30.05;95216.88;5026490;28;20038;-82
2024/01/13 10:30:21;;;;;;;11.05;6.63;;;;;;;9.41;27.79;95221.31;5028494;28;20065;-82
2024/01/13 10:32:47;;;;;;;12.10;6.95;;;;;;;10.31;26.45;95209.97;5027642;28;20104;-82
2024/01/13 10:35:17;;;;;;;11.60;7.32;;;;;;;11.15;25.05;95215.75;5028199;28;20072;-87
2024/01/13 10:37:42;;;;;;;11.65;7.18;;;;;;;12.19;24.03;95228.16;5026174;28;20029;-82
2024/01/13 10:40:09;;;;;;;10.32;7.07;;;;;;;12.74;23.19;95194.94;4993907;28;20030;-81
2024/01/13 10:42:37;;;;;;;10.82;7.03;;;;;;;13.57;22.80;95220.50;5025081;28;20144;-85
2024/01/13 10:45:07;;;;;;;13.13;7.53;;;;;;;14.27;21.95;95203.25;5028720;28;20033;-85
2024/01/13 10:47:38;;;;;;;13.52;8.27;;;;;;;14.32;21.03;95210.19;5028477;28;20033;-92
2024/01/13 10:50:05;;;;;;;13.05;9.25;;;;;;;14.64;20.81;95214.50;5024765;28;20500;-88
2024/01/13 10:52:45;;;;;;;10.70;7.93;;;;;;;15.30;19.95;95211.38;5027300;28;20030;-83
2024/01/13 10:55:10;;;;;;;10.40;7.57;;;;;;;14.34;20.26;95196.69;5007559;28;20091;-87
2024/01/13 10:57:37;;;;;;;11.43;7.65;;;;;;;12.58;22.11;95206.88;5024515;28;20029;-84
2024/01/13 11:00:06;;;;;;;13.48;8.55;;;;;;;11.90;22.52;95200.69;5024120;28;20030;-80
2024/01/13 11:02:33;;;;;;;12.30;7.40;;;;;;;10.93;23.40;95204.53;5009870;28;20029;-86
2024/01/13 11:04:59;;;;;;;12.93;8.15;;;;;;;10.87;23.82;95201.53;5025599;28;20121;-84
2024/01/13 11:07:25;;;;;;;9.95;7.15;;;;;;;10.40;24.72;95203.13;5023563;28;20102;-83
2024/01/13 11:09:52;;;;;;;10.27;7.25;;;;;;;10.31;24.94;95190.75;5007917;28;20583;-87
2024/01/13 11:12:27;;;;;;;11.88;7.30;;;;;;;10.25;25.00;95194.44;5024572;28;20026;-88
2024/01/13 11:15:16;;;;;;;9.80;6.70;;;;;;;10.50;25.14;95197.38;5029046;28;20057;-79